sensor_id;sensor_type;location;lat;lon;timestamp;P1;durP1;ratioP1;P2;durP2;ratioP2
25331;SDS011;13284;52.748;13.452;2023-05-07T00:01:47;12.80;;;9.30;;
25331;SDS011;13284;52.748;13.452;2023-05-07T00:04:13;10.60;;;9.50;;
25331;SDS011;13284;52.748;13.452;2023-05-07T00:06:38;10.77;;;9.23;;
25331;SDS011;13284;52.748;13.452;2023-05-07T00:09:04;10.67;;;8.83;;
25331;SDS011;13284;52.748;13.452;2023-05-07T00:11:31;11.10;;;9.60;;
25331;SDS011;13284;52.748;13.452;2023-05-07T00:13:56;13.93;;;9.90;;
25331;SDS011;13284;52.748;13.452;2023-05-07T00:16:22;10.23;;;9.17;;
25331;SDS011;13284;52.748;13.452;2023-05-07T00:18:48;11.10;;;8.40;;
25331;SDS011;13284;52.748;13.452;2023-05-07T00:21:13;12.57;;;9.13;;
25331;SDS011;13284;52.748;13.452;2023-05-07T00:23:39;12.20;;;9.10;;
25331;SDS011;13284;52.748;13.452;2023-05-07T00:26:04;11.00;;;8.83;;
25331;SDS011;13284;52.748;13.452;2023-05-07T00:28:30;13.07;;;9.70;;
25331;SDS011;13284;52.748;13.452;2023-05-07T00:30:56;11.27;;;9.17;;
25331;SDS011;13284;52.748;13.452;2023-05-07T00:33:22;9.63;;;8.40;;
25331;SDS011;13284;52.748;13.452;2023-05-07T00:35:47;9.53;;;8.20;;
25331;SDS011;13284;52.748;13.452;2023-05-07T00:38:13;11.40;;;8.80;;
25331;SDS011;13284;52.748;13.452;2023-05-07T00:40:39;12.57;;;10.43;;
25331;SDS011;13284;52.748;13.452;2023-05-07T00:43:06;11.27;;;9.40;;
25331;SDS011;13284;52.748;13.452;2023-05-07T00:45:32;13.17;;;9.73;;
25331;SDS011;13284;52.748;13.452;2023-05-07T00:47:59;12.27;;;9.57;;
25331;SDS011;13284;52.748;13.452;2023-05-07T00:50:27;10.90;;;9.33;;
25331;SDS011;13284;52.748;13.452;2023-05-07T00:52:53;11.33;;;9.00;;
25331;SDS011;13284;52.748;13.452;2023-05-07T00:55:19;13.87;;;10.00;;
25331;SDS011;13284;52.748;13.452;2023-05-07T00:57:46;11.37;;;8.83;;
25331;SDS011;13284;52.748;13.452;2023-05-07T01:00:12;11.63;;;9.37;;
25331;SDS011;13284;52.748;13.452;2023-05-07T01:02:41;10.87;;;8.90;;
25331;SDS011;13284;52.748;13.452;2023-05-07T01:05:07;12.30;;;9.67;;
25331;SDS011;13284;52.748;13.452;2023-05-07T01:07:36;12.27;;;9.53;;
25331;SDS011;13284;52.748;13.452;2023-05-07T01:10:03;12.47;;;10.17;;
25331;SDS011;13284;52.748;13.452;2023-05-07T01:12:30;11.47;;;9.70;;
25331;SDS011;13284;52.748;13.452;2023-05-07T01:14:56;13.13;;;8.40;;
25331;SDS011;13284;52.748;13.452;2023-05-07T01:17:22;13.10;;;9.30;;
25331;SDS011;13284;52.748;13.452;2023-05-07T01:19:48;13.87;;;9.77;;
25331;SDS011;13284;52.748;13.452;2023-05-07T01:22:15;12.30;;;9.73;;
25331;SDS011;13284;52.748;13.452;2023-05-07T01:24:46;11.17;;;9.10;;
25331;SDS011;13284;52.748;13.452;2023-05-07T01:27:12;11.33;;;8.93;;
25331;SDS011;13284;52.748;13.452;2023-05-07T01:29:38;14.20;;;10.07;;
25331;SDS011;13284;52.748;13.452;2023-05-07T01:32:03;11.60;;;10.00;;
25331;SDS011;13284;52.748;13.452;2023-05-07T01:34:31;13.33;;;9.53;;
25331;SDS011;13284;52.748;13.452;2023-05-07T01:36:59;10.80;;;8.03;;
25331;SDS011;13284;52.748;13.452;2023-05-07T01:39:25;10.57;;;9.33;;
25331;SDS011;13284;52.748;13.452;2023-05-07T01:41:52;11.33;;;10.00;;
25331;SDS011;13284;52.748;13.452;2023-05-07T01:44:20;13.70;;;9.20;;
25331;SDS011;13284;52.748;13.452;2023-05-07T01:46:47;11.73;;;10.53;;
25331;SDS011;13284;52.748;13.452;2023-05-07T01:49:13;12.50;;;9.83;;
25331;SDS011;13284;52.748;13.452;2023-05-07T01:51:39;10.13;;;8.67;;
25331;SDS011;13284;52.748;13.452;2023-05-07T01:54:05;11.40;;;10.20;;
25331;SDS011;13284;52.748;13.452;2023-05-07T01:56:31;11.60;;;10.03;;
25331;SDS011;13284;52.748;13.452;2023-05-07T01:58:57;10.03;;;9.00;;
25331;SDS011;13284;52.748;13.452;2023-05-07T02:01:22;11.77;;;9.67;;
25331;SDS011;13284;52.748;13.452;2023-05-07T02:03:48;15.27;;;9.87;;
25331;SDS011;13284;52.748;13.452;2023-05-07T02:06:14;10.87;;;9.73;;
25331;SDS011;13284;52.748;13.452;2023-05-07T02:08:39;12.53;;;9.73;;
25331;SDS011;13284;52.748;13.452;2023-05-07T02:11:05;10.73;;;9.37;;
25331;SDS011;13284;52.748;13.452;2023-05-07T02:13:31;13.17;;;9.97;;
25331;SDS011;13284;52.748;13.452;2023-05-07T02:15:57;11.20;;;8.90;;
25331;SDS011;13284;52.748;13.452;2023-05-07T02:18:23;11.87;;;9.20;;
25331;SDS011;13284;52.748;13.452;2023-05-07T02:20:48;12.17;;;10.13;;
25331;SDS011;13284;52.748;13.452;2023-05-07T02:23:14;12.70;;;9.40;;
25331;SDS011;13284;52.748;13.452;2023-05-07T02:25:39;10.80;;;9.23;;
25331;SDS011;13284;52.748;13.452;2023-05-07T02:28:05;12.80;;;10.60;;
25331;SDS011;13284;52.748;13.452;2023-05-07T02:30:31;12.13;;;9.87;;
25331;SDS011;13284;52.748;13.452;2023-05-07T02:32:56;10.67;;;9.57;;
25331;SDS011;13284;52.748;13.452;2023-05-07T02:35:23;12.63;;;9.50;;
25331;SDS011;13284;52.748;13.452;2023-05-07T02:37:50;10.50;;;9.10;;
25331;SDS011;13284;52.748;13.452;2023-05-07T02:40:15;11.60;;;9.87;;
25331;SDS011;13284;52.748;13.452;2023-05-07T02:42:41;10.50;;;9.40;;
25331;SDS011;13284;52.748;13.452;2023-05-07T02:45:06;11.37;;;9.30;;
25331;SDS011;13284;52.748;13.452;2023-05-07T02:47:32;13.80;;;12.40;;
25331;SDS011;13284;52.748;13.452;2023-05-07T02:49:58;12.73;;;10.37;;
25331;SDS011;13284;52.748;13.452;2023-05-07T02:52:23;13.43;;;11.50;;
25331;SDS011;13284;52.748;13.452;2023-05-07T02:54:49;10.37;;;9.33;;
25331;SDS011;13284;52.748;13.452;2023-05-07T02:57:15;13.70;;;10.07;;
25331;SDS011;13284;52.748;13.452;2023-05-07T02:59:41;11.57;;;10.00;;
25331;SDS011;13284;52.748;13.452;2023-05-07T03:02:07;11.07;;;9.90;;
25331;SDS011;13284;52.748;13.452;2023-05-07T03:04:33;12.50;;;10.17;;
25331;SDS011;13284;52.748;13.452;2023-05-07T03:06:58;11.77;;;9.70;;
25331;SDS011;13284;52.748;13.452;2023-05-07T03:09:24;11.93;;;10.33;;
25331;SDS011;13284;52.748;13.452;2023-05-07T03:11:49;11.83;;;9.97;;
25331;SDS011;13284;52.748;13.452;2023-05-07T03:14:15;12.13;;;10.37;;
25331;SDS011;13284;52.748;13.452;2023-05-07T03:16:40;13.03;;;9.50;;
25331;SDS011;13284;52.748;13.452;2023-05-07T03:19:05;15.93;;;8.10;;
25331;SDS011;13284;52.748;13.452;2023-05-07T03:21:31;12.60;;;9.33;;
25331;SDS011;13284;52.748;13.452;2023-05-07T03:23:58;10.03;;;9.03;;
25331;SDS011;13284;52.748;13.452;2023-05-07T03:26:24;10.80;;;8.07;;
25331;SDS011;13284;52.748;13.452;2023-05-07T03:28:50;10.73;;;8.53;;
25331;SDS011;13284;52.748;13.452;2023-05-07T03:31:15;11.33;;;9.10;;
25331;SDS011;13284;52.748;13.452;2023-05-07T03:33:54;11.73;;;8.33;;
25331;SDS011;13284;52.748;13.452;2023-05-07T03:36:21;9.10;;;7.70;;
25331;SDS011;13284;52.748;13.452;2023-05-07T03:38:47;9.57;;;8.40;;
25331;SDS011;13284;52.748;13.452;2023-05-07T03:41:13;13.73;;;8.80;;
25331;SDS011;13284;52.748;13.452;2023-05-07T03:43:39;13.70;;;8.73;;
25331;SDS011;13284;52.748;13.452;2023-05-07T03:46:05;10.60;;;8.10;;
25331;SDS011;13284;52.748;13.452;2023-05-07T03:48:30;10.47;;;8.57;;
25331;SDS011;13284;52.748;13.452;2023-05-07T03:50:56;8.73;;;7.83;;
25331;SDS011;13284;52.748;13.452;2023-05-07T03:53:22;11.70;;;8.13;;
25331;SDS011;13284;52.748;13.452;2023-05-07T03:55:48;9.03;;;8.03;;
25331;SDS011;13284;52.748;13.452;2023-05-07T03:58:14;10.43;;;8.27;;
25331;SDS011;13284;52.748;13.452;2023-05-07T04:00:40;9.27;;;8.27;;
25331;SDS011;13284;52.748;13.452;2023-05-07T04:03:06;10.83;;;7.77;;
25331;SDS011;13284;52.748;13.452;2023-05-07T04:05:31;8.73;;;7.17;;
25331;SDS011;13284;52.748;13.452;2023-05-07T04:07:57;9.53;;;7.67;;
25331;SDS011;13284;52.748;13.452;2023-05-07T04:10:23;8.40;;;7.60;;
25331;SDS011;13284;52.748;13.452;2023-05-07T04:12:49;11.13;;;8.47;;
25331;SDS011;13284;52.748;13.452;2023-05-07T04:15:14;12.10;;;7.60;;
25331;SDS011;13284;52.748;13.452;2023-05-07T04:17:40;13.37;;;8.23;;
25331;SDS011;13284;52.748;13.452;2023-05-07T04:20:08;9.80;;;8.13;;
25331;SDS011;13284;52.748;13.452;2023-05-07T04:22:35;8.60;;;7.70;;
25331;SDS011;13284;52.748;13.452;2023-05-07T04:25:01;10.40;;;9.13;;
25331;SDS011;13284;52.748;13.452;2023-05-07T04:27:27;11.17;;;8.13;;
25331;SDS011;13284;52.748;13.452;2023-05-07T04:29:53;8.97;;;8.07;;
25331;SDS011;13284;52.748;13.452;2023-05-07T04:32:20;10.80;;;8.20;;
25331;SDS011;13284;52.748;13.452;2023-05-07T04:34:46;10.30;;;8.13;;
25331;SDS011;13284;52.748;13.452;2023-05-07T04:37:11;10.90;;;7.37;;
25331;SDS011;13284;52.748;13.452;2023-05-07T04:39:37;10.03;;;7.83;;
25331;SDS011;13284;52.748;13.452;2023-05-07T04:42:02;9.33;;;7.83;;
25331;SDS011;13284;52.748;13.452;2023-05-07T04:44:28;12.03;;;8.97;;
25331;SDS011;13284;52.748;13.452;2023-05-07T04:46:55;10.00;;;9.00;;
25331;SDS011;13284;52.748;13.452;2023-05-07T04:49:21;9.90;;;7.93;;
25331;SDS011;13284;52.748;13.452;2023-05-07T04:51:47;10.70;;;8.97;;
25331;SDS011;13284;52.748;13.452;2023-05-07T04:54:12;10.57;;;9.20;;
25331;SDS011;13284;52.748;13.452;2023-05-07T04:56:38;10.77;;;8.90;;
25331;SDS011;13284;52.748;13.452;2023-05-07T04:59:03;10.20;;;8.50;;
25331;SDS011;13284;52.748;13.452;2023-05-07T05:01:29;11.90;;;10.00;;
25331;SDS011;13284;52.748;13.452;2023-05-07T05:03:55;10.50;;;9.03;;
25331;SDS011;13284;52.748;13.452;2023-05-07T05:06:20;11.83;;;9.67;;
25331;SDS011;13284;52.748;13.452;2023-05-07T05:08:46;10.70;;;8.20;;
25331;SDS011;13284;52.748;13.452;2023-05-07T05:11:11;10.53;;;8.50;;
25331;SDS011;13284;52.748;13.452;2023-05-07T05:13:37;8.97;;;7.97;;
25331;SDS011;13284;52.748;13.452;2023-05-07T05:16:04;10.20;;;8.60;;
25331;SDS011;13284;52.748;13.452;2023-05-07T05:18:30;10.87;;;9.20;;
25331;SDS011;13284;52.748;13.452;2023-05-07T05:20:56;11.33;;;9.27;;
25331;SDS011;13284;52.748;13.452;2023-05-07T05:23:21;9.93;;;8.93;;
25331;SDS011;13284;52.748;13.452;2023-05-07T05:25:47;9.10;;;7.53;;
25331;SDS011;13284;52.748;13.452;2023-05-07T05:28:13;8.50;;;7.57;;
25331;SDS011;13284;52.748;13.452;2023-05-07T05:30:38;15.97;;;8.40;;
25331;SDS011;13284;52.748;13.452;2023-05-07T05:33:04;9.57;;;8.57;;
25331;SDS011;13284;52.748;13.452;2023-05-07T05:35:30;9.90;;;8.10;;
25331;SDS011;13284;52.748;13.452;2023-05-07T05:37:55;10.40;;;7.73;;
25331;SDS011;13284;52.748;13.452;2023-05-07T05:40:21;11.17;;;8.10;;
25331;SDS011;13284;52.748;13.452;2023-05-07T05:42:46;9.03;;;7.60;;
25331;SDS011;13284;52.748;13.452;2023-05-07T05:45:12;8.50;;;7.00;;
25331;SDS011;13284;52.748;13.452;2023-05-07T05:47:37;8.83;;;7.77;;
25331;SDS011;13284;52.748;13.452;2023-05-07T05:50:04;10.57;;;8.20;;
25331;SDS011;13284;52.748;13.452;2023-05-07T05:52:31;8.30;;;7.40;;
25331;SDS011;13284;52.748;13.452;2023-05-07T05:54:56;12.07;;;8.87;;
25331;SDS011;13284;52.748;13.452;2023-05-07T05:57:22;9.83;;;8.83;;
25331;SDS011;13284;52.748;13.452;2023-05-07T05:59:47;10.00;;;8.20;;
25331;SDS011;13284;52.748;13.452;2023-05-07T06:02:13;10.20;;;8.50;;
25331;SDS011;13284;52.748;13.452;2023-05-07T06:04:38;10.80;;;8.53;;
25331;SDS011;13284;52.748;13.452;2023-05-07T06:07:04;8.50;;;7.60;;
25331;SDS011;13284;52.748;13.452;2023-05-07T06:09:30;8.60;;;6.90;;
25331;SDS011;13284;52.748;13.452;2023-05-07T06:11:55;8.80;;;7.37;;
25331;SDS011;13284;52.748;13.452;2023-05-07T06:14:21;8.10;;;7.13;;
25331;SDS011;13284;52.748;13.452;2023-05-07T06:16:46;9.67;;;7.50;;
25331;SDS011;13284;52.748;13.452;2023-05-07T06:19:12;7.90;;;7.10;;
25331;SDS011;13284;52.748;13.452;2023-05-07T06:21:38;8.50;;;7.40;;
25331;SDS011;13284;52.748;13.452;2023-05-07T06:24:04;7.83;;;6.60;;
25331;SDS011;13284;52.748;13.452;2023-05-07T06:26:30;8.60;;;7.27;;
25331;SDS011;13284;52.748;13.452;2023-05-07T06:28:55;8.00;;;6.90;;
25331;SDS011;13284;52.748;13.452;2023-05-07T06:31:21;8.80;;;7.70;;
25331;SDS011;13284;52.748;13.452;2023-05-07T06:33:46;7.30;;;6.23;;
25331;SDS011;13284;52.748;13.452;2023-05-07T06:36:13;7.37;;;6.40;;
25331;SDS011;13284;52.748;13.452;2023-05-07T06:38:38;6.80;;;6.10;;
25331;SDS011;13284;52.748;13.452;2023-05-07T06:41:05;9.20;;;7.20;;
25331;SDS011;13284;52.748;13.452;2023-05-07T06:43:31;8.17;;;7.37;;
25331;SDS011;13284;52.748;13.452;2023-05-07T06:45:56;7.20;;;6.50;;
25331;SDS011;13284;52.748;13.452;2023-05-07T06:48:22;7.53;;;6.20;;
25331;SDS011;13284;52.748;13.452;2023-05-07T06:50:48;6.63;;;6.00;;
25331;SDS011;13284;52.748;13.452;2023-05-07T06:53:13;6.43;;;5.50;;
25331;SDS011;13284;52.748;13.452;2023-05-07T06:55:39;7.23;;;6.17;;
25331;SDS011;13284;52.748;13.452;2023-05-07T06:58:04;7.80;;;6.20;;
25331;SDS011;13284;52.748;13.452;2023-05-07T07:00:30;6.90;;;6.03;;
25331;SDS011;13284;52.748;13.452;2023-05-07T07:02:56;6.50;;;5.87;;
25331;SDS011;13284;52.748;13.452;2023-05-07T07:05:22;7.47;;;6.13;;
25331;SDS011;13284;52.748;13.452;2023-05-07T07:07:47;7.20;;;6.43;;
25331;SDS011;13284;52.748;13.452;2023-05-07T07:10:18;6.23;;;5.63;;
25331;SDS011;13284;52.748;13.452;2023-05-07T07:12:44;6.90;;;6.30;;
25331;SDS011;13284;52.748;13.452;2023-05-07T07:15:10;8.40;;;5.53;;
25331;SDS011;13284;52.748;13.452;2023-05-07T07:17:36;7.93;;;5.80;;
25331;SDS011;13284;52.748;13.452;2023-05-07T07:20:01;5.93;;;5.33;;
25331;SDS011;13284;52.748;13.452;2023-05-07T07:22:27;5.83;;;5.27;;
25331;SDS011;13284;52.748;13.452;2023-05-07T07:24:53;5.73;;;5.10;;
25331;SDS011;13284;52.748;13.452;2023-05-07T07:27:19;6.30;;;5.70;;
25331;SDS011;13284;52.748;13.452;2023-05-07T07:29:44;5.20;;;4.70;;
25331;SDS011;13284;52.748;13.452;2023-05-07T07:32:10;6.93;;;5.80;;
25331;SDS011;13284;52.748;13.452;2023-05-07T07:34:35;5.43;;;4.90;;
25331;SDS011;13284;52.748;13.452;2023-05-07T07:37:01;5.47;;;4.53;;
25331;SDS011;13284;52.748;13.452;2023-05-07T07:39:30;4.17;;;3.87;;
25331;SDS011;13284;52.748;13.452;2023-05-07T07:41:56;5.03;;;3.50;;
25331;SDS011;13284;52.748;13.452;2023-05-07T07:44:21;5.17;;;3.87;;
25331;SDS011;13284;52.748;13.452;2023-05-07T07:46:47;3.70;;;3.23;;
25331;SDS011;13284;52.748;13.452;2023-05-07T07:49:12;5.00;;;4.37;;
25331;SDS011;13284;52.748;13.452;2023-05-07T07:51:39;4.10;;;3.70;;
25331;SDS011;13284;52.748;13.452;2023-05-07T07:54:04;3.93;;;3.53;;
25331;SDS011;13284;52.748;13.452;2023-05-07T07:56:29;3.57;;;3.27;;
25331;SDS011;13284;52.748;13.452;2023-05-07T07:58:57;4.10;;;3.80;;
25331;SDS011;13284;52.748;13.452;2023-05-07T08:01:22;5.63;;;3.40;;
25331;SDS011;13284;52.748;13.452;2023-05-07T08:03:48;4.73;;;3.83;;
25331;SDS011;13284;52.748;13.452;2023-05-07T08:06:13;4.10;;;3.70;;
25331;SDS011;13284;52.748;13.452;2023-05-07T08:08:39;5.57;;;3.40;;
25331;SDS011;13284;52.748;13.452;2023-05-07T08:11:04;5.43;;;3.57;;
25331;SDS011;13284;52.748;13.452;2023-05-07T08:13:30;4.00;;;3.50;;
25331;SDS011;13284;52.748;13.452;2023-05-07T08:15:56;3.70;;;3.30;;
25331;SDS011;13284;52.748;13.452;2023-05-07T08:18:21;3.20;;;2.90;;
25331;SDS011;13284;52.748;13.452;2023-05-07T08:20:48;3.63;;;3.30;;
25331;SDS011;13284;52.748;13.452;2023-05-07T08:23:13;4.17;;;3.60;;
25331;SDS011;13284;52.748;13.452;2023-05-07T08:25:39;5.53;;;3.60;;
25331;SDS011;13284;52.748;13.452;2023-05-07T08:28:05;4.57;;;3.50;;
25331;SDS011;13284;52.748;13.452;2023-05-07T08:30:30;3.60;;;3.17;;
25331;SDS011;13284;52.748;13.452;2023-05-07T08:32:56;2.83;;;2.50;;
25331;SDS011;13284;52.748;13.452;2023-05-07T08:35:21;2.97;;;2.67;;
25331;SDS011;13284;52.748;13.452;2023-05-07T08:37:47;4.33;;;3.00;;
25331;SDS011;13284;52.748;13.452;2023-05-07T08:40:12;3.10;;;2.50;;
25331;SDS011;13284;52.748;13.452;2023-05-07T08:42:38;4.07;;;3.20;;
25331;SDS011;13284;52.748;13.452;2023-05-07T08:45:09;3.37;;;2.70;;
25331;SDS011;13284;52.748;13.452;2023-05-07T08:47:40;2.73;;;2.53;;
25331;SDS011;13284;52.748;13.452;2023-05-07T08:50:12;2.80;;;2.50;;
25331;SDS011;13284;52.748;13.452;2023-05-07T08:52:39;3.80;;;3.17;;
25331;SDS011;13284;52.748;13.452;2023-05-07T08:55:05;3.17;;;2.87;;
25331;SDS011;13284;52.748;13.452;2023-05-07T08:57:32;3.90;;;3.37;;
25331;SDS011;13284;52.748;13.452;2023-05-07T08:59:57;3.37;;;3.07;;
25331;SDS011;13284;52.748;13.452;2023-05-07T09:02:23;2.83;;;2.50;;
25331;SDS011;13284;52.748;13.452;2023-05-07T09:04:49;4.13;;;3.07;;
25331;SDS011;13284;52.748;13.452;2023-05-07T09:07:15;2.57;;;2.37;;
25331;SDS011;13284;52.748;13.452;2023-05-07T09:09:41;3.60;;;2.90;;
25331;SDS011;13284;52.748;13.452;2023-05-07T09:12:11;3.03;;;2.70;;
25331;SDS011;13284;52.748;13.452;2023-05-07T09:14:37;3.40;;;2.87;;
25331;SDS011;13284;52.748;13.452;2023-05-07T09:17:03;2.83;;;2.53;;
25331;SDS011;13284;52.748;13.452;2023-05-07T09:19:29;2.80;;;2.57;;
25331;SDS011;13284;52.748;13.452;2023-05-07T09:21:58;3.70;;;3.20;;
25331;SDS011;13284;52.748;13.452;2023-05-07T09:24:25;2.90;;;2.60;;
25331;SDS011;13284;52.748;13.452;2023-05-07T09:26:50;3.13;;;2.53;;
25331;SDS011;13284;52.748;13.452;2023-05-07T09:29:16;2.60;;;2.40;;
25331;SDS011;13284;52.748;13.452;2023-05-07T09:31:42;3.10;;;2.80;;
25331;SDS011;13284;52.748;13.452;2023-05-07T09:34:07;3.43;;;2.70;;
25331;SDS011;13284;52.748;13.452;2023-05-07T09:36:33;2.00;;;1.90;;
25331;SDS011;13284;52.748;13.452;2023-05-07T09:38:59;2.97;;;2.67;;
25331;SDS011;13284;52.748;13.452;2023-05-07T09:41:25;2.80;;;2.60;;
25331;SDS011;13284;52.748;13.452;2023-05-07T09:43:54;4.80;;;2.53;;
25331;SDS011;13284;52.748;13.452;2023-05-07T09:46:21;2.90;;;2.70;;
25331;SDS011;13284;52.748;13.452;2023-05-07T09:48:52;3.80;;;2.80;;
25331;SDS011;13284;52.748;13.452;2023-05-07T09:53:53;2.77;;;2.40;;
25331;SDS011;13284;52.748;13.452;2023-05-07T09:56:19;2.70;;;2.50;;
25331;SDS011;13284;52.748;13.452;2023-05-07T09:58:45;2.97;;;2.67;;
25331;SDS011;13284;52.748;13.452;2023-05-07T10:01:11;3.97;;;3.03;;
25331;SDS011;13284;52.748;13.452;2023-05-07T10:03:39;2.90;;;2.70;;
25331;SDS011;13284;52.748;13.452;2023-05-07T10:06:05;2.93;;;2.70;;
25331;SDS011;13284;52.748;13.452;2023-05-07T10:08:33;2.70;;;2.50;;
25331;SDS011;13284;52.748;13.452;2023-05-07T10:11:00;2.70;;;2.50;;
25331;SDS011;13284;52.748;13.452;2023-05-07T10:13:26;2.37;;;2.17;;
25331;SDS011;13284;52.748;13.452;2023-05-07T10:15:52;2.80;;;2.60;;
25331;SDS011;13284;52.748;13.452;2023-05-07T10:18:18;2.50;;;2.30;;
25331;SDS011;13284;52.748;13.452;2023-05-07T10:20:48;2.47;;;2.27;;
25331;SDS011;13284;52.748;13.452;2023-05-07T10:23:18;3.30;;;3.00;;
25331;SDS011;13284;52.748;13.452;2023-05-07T10:25:48;2.60;;;2.30;;
25331;SDS011;13284;52.748;13.452;2023-05-07T10:28:14;2.80;;;2.40;;
25331;SDS011;13284;52.748;13.452;2023-05-07T10:33:19;2.80;;;2.60;;
25331;SDS011;13284;52.748;13.452;2023-05-07T10:35:49;2.90;;;2.70;;
25331;SDS011;13284;52.748;13.452;2023-05-07T10:38:15;3.37;;;2.60;;
25331;SDS011;13284;52.748;13.452;2023-05-07T10:40:40;2.17;;;1.97;;
25331;SDS011;13284;52.748;13.452;2023-05-07T10:43:06;3.37;;;2.53;;
25331;SDS011;13284;52.748;13.452;2023-05-07T10:45:32;2.50;;;2.10;;
25331;SDS011;13284;52.748;13.452;2023-05-07T10:48:08;2.50;;;2.30;;
25331;SDS011;13284;52.748;13.452;2023-05-07T10:50:41;2.40;;;2.20;;
25331;SDS011;13284;52.748;13.452;2023-05-07T10:55:49;2.73;;;2.53;;
25331;SDS011;13284;52.748;13.452;2023-05-07T10:58:22;2.97;;;2.57;;
25331;SDS011;13284;52.748;13.452;2023-05-07T11:00:58;6.17;;;2.67;;
25331;SDS011;13284;52.748;13.452;2023-05-07T11:03:25;2.60;;;1.93;;
25331;SDS011;13284;52.748;13.452;2023-05-07T11:06:08;4.10;;;2.53;;
25331;SDS011;13284;52.748;13.452;2023-05-07T11:09:11;3.33;;;2.63;;
25331;SDS011;13284;52.748;13.452;2023-05-07T11:11:45;4.07;;;2.37;;
25331;SDS011;13284;52.748;13.452;2023-05-07T11:17:05;2.40;;;2.20;;
25331;SDS011;13284;52.748;13.452;2023-05-07T11:19:47;2.43;;;2.23;;
25331;SDS011;13284;52.748;13.452;2023-05-07T11:24:59;2.37;;;2.27;;
25331;SDS011;13284;52.748;13.452;2023-05-07T11:27:25;2.20;;;2.00;;
25331;SDS011;13284;52.748;13.452;2023-05-07T11:29:51;3.47;;;2.70;;
25331;SDS011;13284;52.748;13.452;2023-05-07T11:32:23;3.07;;;2.63;;
25331;SDS011;13284;52.748;13.452;2023-05-07T11:34:56;4.23;;;2.27;;
25331;SDS011;13284;52.748;13.452;2023-05-07T11:37:23;2.37;;;2.20;;
25331;SDS011;13284;52.748;13.452;2023-05-07T11:39:49;3.77;;;2.40;;
25331;SDS011;13284;52.748;13.452;2023-05-07T11:42:31;3.20;;;2.80;;
25331;SDS011;13284;52.748;13.452;2023-05-07T11:44:58;2.50;;;2.30;;
25331;SDS011;13284;52.748;13.452;2023-05-07T11:47:24;2.40;;;2.20;;
25331;SDS011;13284;52.748;13.452;2023-05-07T11:49:51;2.07;;;1.90;;
25331;SDS011;13284;52.748;13.452;2023-05-07T11:52:18;3.90;;;2.70;;
25331;SDS011;13284;52.748;13.452;2023-05-07T11:57:17;2.30;;;2.10;;
25331;SDS011;13284;52.748;13.452;2023-05-07T11:59:43;2.63;;;1.97;;
25331;SDS011;13284;52.748;13.452;2023-05-07T12:02:14;3.10;;;1.90;;
25331;SDS011;13284;52.748;13.452;2023-05-07T12:04:40;2.40;;;2.30;;
25331;SDS011;13284;52.748;13.452;2023-05-07T12:07:13;2.60;;;2.40;;
25331;SDS011;13284;52.748;13.452;2023-05-07T12:09:40;2.60;;;2.40;;
25331;SDS011;13284;52.748;13.452;2023-05-07T12:12:06;1.97;;;1.87;;
25331;SDS011;13284;52.748;13.452;2023-05-07T12:14:32;3.70;;;3.13;;
25331;SDS011;13284;52.748;13.452;2023-05-07T12:17:03;2.30;;;2.10;;
25331;SDS011;13284;52.748;13.452;2023-05-07T12:19:30;1.90;;;1.80;;
25331;SDS011;13284;52.748;13.452;2023-05-07T12:21:56;2.37;;;2.13;;
25331;SDS011;13284;52.748;13.452;2023-05-07T12:24:22;2.40;;;2.10;;
25331;SDS011;13284;52.748;13.452;2023-05-07T12:26:48;2.40;;;2.20;;
25331;SDS011;13284;52.748;13.452;2023-05-07T12:29:13;2.60;;;2.30;;
25331;SDS011;13284;52.748;13.452;2023-05-07T12:31:42;2.23;;;1.77;;
25331;SDS011;13284;52.748;13.452;2023-05-07T12:34:08;2.43;;;2.23;;
25331;SDS011;13284;52.748;13.452;2023-05-07T12:36:36;2.50;;;2.30;;
25331;SDS011;13284;52.748;13.452;2023-05-07T12:39:04;2.70;;;2.50;;
25331;SDS011;13284;52.748;13.452;2023-05-07T12:41:51;2.83;;;2.17;;
25331;SDS011;13284;52.748;13.452;2023-05-07T12:44:25;2.60;;;2.40;;
25331;SDS011;13284;52.748;13.452;2023-05-07T12:46:53;2.23;;;2.03;;
25331;SDS011;13284;52.748;13.452;2023-05-07T12:49:19;2.90;;;2.10;;
25331;SDS011;13284;52.748;13.452;2023-05-07T12:51:46;2.50;;;2.30;;
25331;SDS011;13284;52.748;13.452;2023-05-07T12:54:13;2.40;;;2.20;;
25331;SDS011;13284;52.748;13.452;2023-05-07T12:56:39;2.50;;;2.30;;
25331;SDS011;13284;52.748;13.452;2023-05-07T12:59:05;1.90;;;1.80;;
25331;SDS011;13284;52.748;13.452;2023-05-07T13:01:30;2.80;;;2.30;;
25331;SDS011;13284;52.748;13.452;2023-05-07T13:04:03;2.30;;;2.10;;
25331;SDS011;13284;52.748;13.452;2023-05-07T13:06:29;4.87;;;3.73;;
25331;SDS011;13284;52.748;13.452;2023-05-07T13:08:55;2.63;;;2.40;;
25331;SDS011;13284;52.748;13.452;2023-05-07T13:11:21;2.60;;;2.40;;
25331;SDS011;13284;52.748;13.452;2023-05-07T13:13:47;2.87;;;2.47;;
25331;SDS011;13284;52.748;13.452;2023-05-07T13:16:13;4.37;;;2.23;;
25331;SDS011;13284;52.748;13.452;2023-05-07T13:18:39;2.87;;;2.57;;
25331;SDS011;13284;52.748;13.452;2023-05-07T13:21:05;2.30;;;1.90;;
25331;SDS011;13284;52.748;13.452;2023-05-07T13:23:31;2.37;;;2.17;;
25331;SDS011;13284;52.748;13.452;2023-05-07T13:25:56;2.70;;;2.50;;
25331;SDS011;13284;52.748;13.452;2023-05-07T13:28:22;3.33;;;2.27;;
25331;SDS011;13284;52.748;13.452;2023-05-07T13:30:48;3.03;;;2.50;;
25331;SDS011;13284;52.748;13.452;2023-05-07T13:33:14;3.30;;;2.60;;
25331;SDS011;13284;52.748;13.452;2023-05-07T13:35:41;2.57;;;2.37;;
25331;SDS011;13284;52.748;13.452;2023-05-07T13:38:06;2.10;;;1.90;;
25331;SDS011;13284;52.748;13.452;2023-05-07T13:40:32;3.23;;;2.13;;
25331;SDS011;13284;52.748;13.452;2023-05-07T13:42:58;2.60;;;2.10;;
25331;SDS011;13284;52.748;13.452;2023-05-07T13:45:26;3.80;;;2.47;;
25331;SDS011;13284;52.748;13.452;2023-05-07T13:47:54;2.20;;;2.00;;
25331;SDS011;13284;52.748;13.452;2023-05-07T13:50:20;4.30;;;2.70;;
25331;SDS011;13284;52.748;13.452;2023-05-07T13:52:45;2.23;;;2.03;;
25331;SDS011;13284;52.748;13.452;2023-05-07T13:55:16;3.53;;;2.90;;
25331;SDS011;13284;52.748;13.452;2023-05-07T13:57:46;3.70;;;2.60;;
25331;SDS011;13284;52.748;13.452;2023-05-07T14:00:12;2.97;;;2.10;;
25331;SDS011;13284;52.748;13.452;2023-05-07T14:02:38;2.57;;;2.37;;
25331;SDS011;13284;52.748;13.452;2023-05-07T14:05:04;2.63;;;2.43;;
25331;SDS011;13284;52.748;13.452;2023-05-07T14:07:30;3.10;;;2.80;;
25331;SDS011;13284;52.748;13.452;2023-05-07T14:09:56;2.50;;;2.30;;
25331;SDS011;13284;52.748;13.452;2023-05-07T14:12:21;3.40;;;2.33;;
25331;SDS011;13284;52.748;13.452;2023-05-07T14:14:47;2.93;;;2.73;;
25331;SDS011;13284;52.748;13.452;2023-05-07T14:17:14;2.40;;;2.20;;
25331;SDS011;13284;52.748;13.452;2023-05-07T14:19:43;2.67;;;2.47;;
25331;SDS011;13284;52.748;13.452;2023-05-07T14:22:09;2.70;;;2.50;;
25331;SDS011;13284;52.748;13.452;2023-05-07T14:24:35;2.20;;;2.00;;
25331;SDS011;13284;52.748;13.452;2023-05-07T14:27:01;2.00;;;1.90;;
25331;SDS011;13284;52.748;13.452;2023-05-07T14:29:27;2.73;;;2.23;;
25331;SDS011;13284;52.748;13.452;2023-05-07T14:31:53;2.40;;;2.20;;
25331;SDS011;13284;52.748;13.452;2023-05-07T14:34:18;2.73;;;2.37;;
25331;SDS011;13284;52.748;13.452;2023-05-07T14:36:44;2.30;;;2.10;;
25331;SDS011;13284;52.748;13.452;2023-05-07T14:39:09;1.97;;;1.87;;
25331;SDS011;13284;52.748;13.452;2023-05-07T14:41:35;2.27;;;2.00;;